createdAt,value
2023-01-10T00:01:04.248Z,97630.06
2023-01-10T00:04:08.346Z,97628.47
2023-01-10T00:07:12.359Z,97643.16
2023-01-10T00:10:16.530Z,97643.16
2023-01-10T00:13:20.271Z,97658.41
2023-01-10T00:16:24.503Z,97668.66
2023-01-10T00:19:28.222Z,97678.53
2023-01-10T00:22:32.180Z,97685.50
2023-01-10T00:25:35.942Z,97691.84
2023-01-10T00:28:39.846Z,97696.59
2023-01-10T00:31:43.955Z,97695.22
2023-01-10T00:34:47.962Z,97699.09
2023-01-10T00:37:51.872Z,97698.91
2023-01-10T00:44:17.581Z,97727.28
2023-01-10T00:47:21.715Z,97731.50
2023-01-10T00:50:25.703Z,97742.28
2023-01-10T00:53:29.686Z,97742.88
2023-01-10T00:56:33.578Z,97739.34
2023-01-10T00:59:37.530Z,97743.78
2023-01-10T01:02:41.689Z,97758.84
2023-01-10T01:05:45.873Z,97772.69
2023-01-10T01:08:49.554Z,97781.00
2023-01-10T01:11:53.591Z,97790.03
2023-01-10T01:14:57.967Z,97795.53
2023-01-10T01:18:02.076Z,97796.31
2023-01-10T01:21:05.900Z,97801.34
2023-01-10T01:24:10.060Z,97800.94
2023-01-10T01:27:13.819Z,97795.03
2023-01-10T01:30:17.911Z,97798.25
2023-01-10T01:33:21.952Z,97811.31
2023-01-10T01:36:25.893Z,97805.91
2023-01-10T01:39:29.813Z,97813.41
2023-01-10T01:42:33.980Z,97827.78
2023-01-10T01:45:38.031Z,97843.81
2023-01-10T01:48:42.069Z,97862.47
2023-01-10T01:51:45.962Z,97865.34
2023-01-10T01:54:50.035Z,97873.03
2023-01-10T01:57:54.308Z,97884.53
2023-01-10T02:00:58.024Z,97885.72
2023-01-10T02:04:01.939Z,97888.81
2023-01-10T02:07:05.846Z,97890.03
2023-01-10T02:10:09.758Z,97894.34
2023-01-10T02:13:13.825Z,97890.44
2023-01-10T02:16:18.019Z,97890.38
2023-01-10T02:19:21.788Z,97894.41
2023-01-10T02:22:25.601Z,97906.47
2023-01-10T02:25:29.531Z,97914.16
2023-01-10T02:28:33.390Z,97901.47
2023-01-10T02:31:37.174Z,97912.66
2023-01-10T02:34:41.253Z,97920.44
2023-01-10T02:37:45.120Z,97923.53
2023-01-10T02:40:49.250Z,97915.00
2023-01-10T02:43:53.184Z,97927.38
2023-01-10T02:46:57.218Z,97927.44
2023-01-10T02:50:01.074Z,97920.69
2023-01-10T02:53:05.264Z,97923.34
2023-01-10T02:56:09.149Z,97919.06
2023-01-10T02:59:13.215Z,97929.34
2023-01-10T03:02:17.429Z,97937.72
2023-01-10T03:05:21.951Z,97947.72
2023-01-10T03:08:26.075Z,97962.56
2023-01-10T03:11:29.864Z,97956.72
2023-01-10T03:14:33.674Z,97974.47
2023-01-10T03:17:37.619Z,97978.53
2023-01-10T03:20:41.650Z,97980.03
2023-01-10T03:23:45.561Z,97984.50
2023-01-10T03:26:49.625Z,97994.44
2023-01-10T03:29:53.534Z,97998.25
2023-01-10T03:32:57.528Z,97997.63
2023-01-10T03:36:02.029Z,98005.22
2023-01-10T03:39:05.859Z,98008.31
2023-01-10T03:42:09.628Z,98005.81
2023-01-10T03:45:13.557Z,97997.84
2023-01-10T03:48:17.638Z,98008.75
2023-01-10T03:51:21.619Z,98016.47
2023-01-10T03:54:25.462Z,98025.16
2023-01-10T03:57:29.499Z,98032.78
2023-01-10T04:00:33.728Z,98029.16
2023-01-10T04:03:37.559Z,98040.66
2023-01-10T04:06:41.407Z,98043.28
2023-01-10T04:09:45.453Z,98044.53
2023-01-10T04:12:49.402Z,98044.81
2023-01-10T04:15:53.445Z,98031.66
2023-01-10T04:18:57.339Z,98047.00
2023-01-10T04:22:01.175Z,98048.75
2023-01-10T04:25:05.036Z,98052.31
2023-01-10T04:28:09.080Z,98057.31
2023-01-10T04:31:13.226Z,98055.84
2023-01-10T04:34:16.994Z,98062.38
2023-01-10T04:37:20.969Z,98052.06
2023-01-10T04:40:24.958Z,98056.47
2023-01-10T04:43:29.062Z,98052.44
2023-01-10T04:46:33.020Z,98049.91
2023-01-10T04:49:38.928Z,98064.19
2023-01-10T04:52:42.693Z,98079.91
2023-01-10T04:55:46.699Z,98073.06
2023-01-10T04:58:53.057Z,98088.63
2023-01-10T05:01:57.777Z,98095.78
2023-01-10T05:05:01.537Z,98106.34
2023-01-10T05:08:05.248Z,98114.13
2023-01-10T05:11:09.363Z,98108.88
2023-01-10T05:14:13.506Z,98090.63
2023-01-10T05:17:17.461Z,98098.31
2023-01-10T05:20:21.312Z,98102.91
2023-01-10T05:23:25.394Z,98109.03
2023-01-10T05:26:29.477Z,98112.34
2023-01-10T05:29:33.794Z,98121.28
2023-01-10T05:32:37.511Z,98115.34
2023-01-10T05:35:41.389Z,98121.72
2023-01-10T05:38:45.533Z,98115.69
2023-01-10T05:41:49.607Z,98129.47
2023-01-10T05:44:53.721Z,98130.63
2023-01-10T05:47:57.672Z,98144.94
2023-01-10T05:51:01.750Z,98151.25
2023-01-10T05:54:05.774Z,98151.69
2023-01-10T05:57:09.880Z,98146.41
2023-01-10T06:00:13.800Z,98154.47
2023-01-10T06:03:17.819Z,98160.06
2023-01-10T06:06:21.784Z,98168.16
2023-01-10T06:09:25.702Z,98170.44
2023-01-10T06:12:29.815Z,98177.88
2023-01-10T06:15:33.838Z,98180.91
2023-01-10T06:18:39.118Z,98185.97
2023-01-10T06:21:43.039Z,98194.91
2023-01-10T06:24:47.118Z,98196.78
2023-01-10T06:27:50.994Z,98192.91
2023-01-10T06:30:54.976Z,98197.97
2023-01-10T06:33:59.114Z,98199.50
2023-01-10T06:37:03.097Z,98200.03
2023-01-10T06:40:07.007Z,98207.97
2023-01-10T06:43:10.903Z,98209.75
2023-01-10T06:46:14.844Z,98208.75
2023-01-10T06:49:18.905Z,98217.78
2023-01-10T06:52:23.135Z,98216.78
2023-01-10T06:55:27.083Z,98217.41
2023-01-10T06:58:30.983Z,98219.22
2023-01-10T07:01:35.240Z,98221.38
2023-01-10T07:04:39.657Z,98230.00
2023-01-10T07:07:43.709Z,98223.97
2023-01-10T07:10:47.969Z,98230.66
2023-01-10T07:13:52.057Z,98237.22
2023-01-10T07:16:56.379Z,98246.38
2023-01-10T07:20:00.750Z,98248.91
2023-01-10T07:23:04.738Z,98252.28
2023-01-10T07:26:08.781Z,98260.50
2023-01-10T07:29:12.860Z,98266.88
2023-01-10T07:32:17.134Z,98275.78
2023-01-10T07:35:21.391Z,98277.50
2023-01-10T07:38:25.330Z,98287.41
2023-01-10T07:41:29.167Z,98287.78
2023-01-10T07:44:33.438Z,98284.88
2023-01-10T07:47:37.961Z,98294.63
2023-01-10T07:50:42.195Z,98303.91
2023-01-10T07:53:46.181Z,98305.88
2023-01-10T07:56:50.209Z,98310.56
2023-01-10T07:59:53.877Z,98313.53
2023-01-10T08:02:58.324Z,98317.31
2023-01-10T08:06:02.330Z,98321.69
2023-01-10T08:09:06.154Z,98316.50
2023-01-10T08:12:10.291Z,98320.13
2023-01-10T08:15:14.510Z,98327.13
2023-01-10T08:18:18.291Z,98330.78
2023-01-10T08:21:22.178Z,98327.78
2023-01-10T08:24:26.121Z,98336.72
2023-01-10T08:27:30.225Z,98341.59
2023-01-10T08:30:35.159Z,98347.06
2023-01-10T08:33:39.068Z,98352.81
2023-01-10T08:36:42.788Z,98358.31
2023-01-10T08:39:46.971Z,98357.88
2023-01-10T08:42:51.143Z,98352.41
2023-01-10T08:45:55.037Z,98356.34
2023-01-10T08:48:58.962Z,98352.00
2023-01-10T08:52:03.143Z,98351.03
2023-01-10T08:55:07.276Z,98351.06
2023-01-10T08:58:11.854Z,98347.69
2023-01-10T09:01:15.765Z,98346.16
2023-01-10T09:04:19.558Z,98362.75
2023-01-10T09:07:23.594Z,98370.25
2023-01-10T09:10:27.894Z,98369.16
2023-01-10T09:13:32.174Z,98375.38
2023-01-10T09:16:36.254Z,98372.50
2023-01-10T09:19:40.226Z,98383.31
2023-01-10T09:22:44.455Z,98378.97
2023-01-10T09:25:48.827Z,98377.44
2023-01-10T09:28:53.017Z,98377.88
2023-01-10T09:31:57.223Z,98380.16
2023-01-10T09:35:01.351Z,98381.84
2023-01-10T09:38:05.156Z,98381.69
2023-01-10T09:41:09.193Z,98393.97
2023-01-10T09:44:12.952Z,98381.53
2023-01-10T09:47:22.478Z,98386.94
2023-01-10T09:50:27.155Z,98390.88
2023-01-10T09:53:30.984Z,98396.69
2023-01-10T09:56:34.899Z,98394.63
2023-01-10T09:59:39.108Z,98402.75
2023-01-10T10:02:43.431Z,98403.66
2023-01-10T10:05:47.543Z,98405.81
2023-01-10T10:08:51.460Z,98409.41
2023-01-10T10:11:55.463Z,98407.56
2023-01-10T10:14:59.729Z,98414.47
2023-01-10T10:18:04.069Z,98412.84
2023-01-10T10:21:08.189Z,98402.28
2023-01-10T10:24:12.259Z,98409.22
2023-01-10T10:27:16.377Z,98409.72
2023-01-10T10:30:20.056Z,98411.81
2023-01-10T10:33:24.197Z,98416.09
2023-01-10T10:36:27.838Z,98418.84
2023-01-10T10:39:31.662Z,98424.78
2023-01-10T10:42:35.879Z,98421.81
2023-01-10T10:45:40.131Z,98412.47
2023-01-10T10:48:43.823Z,98408.19
2023-01-10T10:51:47.899Z,98409.34
2023-01-10T10:54:52.091Z,98407.81
2023-01-10T10:58:00.380Z,98410.13
2023-01-10T11:01:05.091Z,98410.84
2023-01-10T11:04:09.167Z,98409.69
2023-01-10T11:07:13.098Z,98414.28
2023-01-10T11:10:17.023Z,98405.91
2023-01-10T11:13:21.291Z,98406.69
2023-01-10T11:16:25.621Z,98403.09
2023-01-10T11:19:29.709Z,98390.13
2023-01-10T11:22:33.709Z,98382.63
2023-01-10T11:25:37.893Z,98385.19
2023-01-10T11:28:42.334Z,98383.81
2023-01-10T11:31:46.149Z,98374.47
2023-01-10T11:34:50.046Z,98373.06
2023-01-10T11:37:53.820Z,98375.09
2023-01-10T11:40:58.211Z,98367.84
2023-01-10T11:44:02.394Z,98357.56
2023-01-10T11:47:06.562Z,98355.56
2023-01-10T11:50:10.317Z,98346.88
2023-01-10T11:53:14.409Z,98342.38
2023-01-10T11:56:18.256Z,98338.66
2023-01-10T11:59:22.214Z,98327.75
2023-01-10T12:02:26.084Z,98322.03
2023-01-10T12:05:30.068Z,98315.00
2023-01-10T12:08:33.889Z,98307.38
2023-01-10T12:11:38.372Z,98301.13
2023-01-10T12:14:42.224Z,98296.88
2023-01-10T12:17:46.240Z,98291.41
2023-01-10T12:20:50.130Z,98281.34
2023-01-10T12:23:53.954Z,98273.50
2023-01-10T12:26:58.137Z,98267.00
2023-01-10T12:30:01.964Z,98266.03
2023-01-10T12:33:05.961Z,98263.56
2023-01-10T12:36:10.139Z,98273.09
2023-01-10T12:39:14.440Z,98264.19
2023-01-10T12:42:21.883Z,98252.28
2023-01-10T12:45:27.922Z,98241.56
2023-01-10T12:48:32.100Z,98235.31
2023-01-10T12:51:35.834Z,98235.31
2023-01-10T12:54:39.723Z,98227.22
2023-01-10T12:57:43.675Z,98222.75
2023-01-10T13:00:48.837Z,98211.06
2023-01-10T13:03:53.150Z,98208.81
2023-01-10T13:06:56.842Z,98217.09
2023-01-10T13:10:00.722Z,98211.59
2023-01-10T13:13:04.878Z,98215.03
2023-01-10T13:16:08.945Z,98201.50
2023-01-10T13:19:12.924Z,98200.88
2023-01-10T13:22:17.457Z,98192.97
2023-01-10T13:25:21.431Z,98189.53
2023-01-10T13:28:25.085Z,98186.31
2023-01-10T13:31:29.135Z,98187.78
2023-01-10T13:34:33.824Z,98183.50
2023-01-10T13:37:39.232Z,98182.94
2023-01-10T13:40:43.570Z,98181.91
2023-01-10T13:43:50.001Z,98178.88
2023-01-10T13:46:54.220Z,98167.94
2023-01-10T13:49:57.957Z,98159.72
2023-01-10T13:53:02.025Z,98151.75
2023-01-10T13:56:06.209Z,98146.63
2023-01-10T13:59:10.260Z,98155.63
2023-01-10T14:02:14.246Z,98169.44
2023-01-10T14:05:18.652Z,98175.59
2023-01-10T14:08:22.620Z,98156.78
2023-01-10T14:11:26.884Z,98156.25
2023-01-10T14:14:31.239Z,98158.03
2023-01-10T14:17:35.058Z,98153.75
2023-01-10T14:20:39.331Z,98158.69
2023-01-10T14:23:43.325Z,98165.91
2023-01-10T14:26:47.123Z,98158.22
2023-01-10T14:29:51.213Z,98162.91
2023-01-10T14:32:57.706Z,98158.72
2023-01-10T14:36:01.873Z,98152.28
2023-01-10T14:39:05.870Z,98157.03
2023-01-10T14:42:10.001Z,98156.28
2023-01-10T14:45:13.975Z,98156.06
2023-01-10T14:48:17.808Z,98153.84
2023-01-10T14:51:21.606Z,98165.94
2023-01-10T14:54:25.655Z,98176.84
2023-01-10T14:57:29.653Z,98171.41
2023-01-10T15:00:33.522Z,98159.91
2023-01-10T15:03:37.208Z,98166.19
2023-01-10T15:06:42.550Z,98164.34
2023-01-10T15:09:46.591Z,98173.44
2023-01-10T15:12:50.470Z,98174.63
2023-01-10T15:15:54.237Z,98177.47
2023-01-10T15:18:58.039Z,98172.00
2023-01-10T15:22:01.969Z,98173.84
2023-01-10T15:25:06.121Z,98163.75
2023-01-10T15:28:10.039Z,98170.63
2023-01-10T15:31:13.957Z,98172.03
2023-01-10T15:34:17.818Z,98175.28
2023-01-10T15:37:21.688Z,98173.84
2023-01-10T15:40:25.528Z,98178.69
2023-01-10T15:43:29.343Z,98167.38
2023-01-10T15:46:33.204Z,98161.75
2023-01-10T15:49:37.308Z,98164.53
2023-01-10T15:52:41.322Z,98169.97
2023-01-10T15:55:45.086Z,98167.16
2023-01-10T15:58:48.769Z,98163.13
2023-01-10T16:01:52.728Z,98164.72
2023-01-10T16:04:57.365Z,98165.13
2023-01-10T16:08:01.287Z,98157.06
2023-01-10T16:11:04.945Z,98158.69
2023-01-10T16:14:08.746Z,98157.88
2023-01-10T16:17:12.654Z,98156.63
2023-01-10T16:20:16.461Z,98156.66
2023-01-10T16:23:20.485Z,98141.53
2023-01-10T16:26:24.257Z,98148.59
2023-01-10T16:29:28.065Z,98155.06
2023-01-10T16:32:32.577Z,98150.22
2023-01-10T16:35:36.534Z,98152.25
2023-01-10T16:38:40.802Z,98148.78
2023-01-10T16:41:47.234Z,98147.56
2023-01-10T16:44:51.210Z,98146.97
2023-01-10T16:47:55.185Z,98150.22
2023-01-10T16:51:00.238Z,98161.94
2023-01-10T16:57:25.950Z,98153.84
2023-01-10T17:00:30.020Z,98150.22
2023-01-10T17:03:33.832Z,98154.47
2023-01-10T17:06:37.988Z,98152.63
2023-01-10T17:09:41.655Z,98159.72
2023-01-10T17:12:45.448Z,98166.56
2023-01-10T17:15:49.587Z,98166.38
2023-01-10T17:18:54.941Z,98160.53
2023-01-10T17:21:59.364Z,98169.19
2023-01-10T17:25:04.039Z,98179.31
2023-01-10T17:28:07.977Z,98175.50
2023-01-10T17:31:12.550Z,98176.13
2023-01-10T17:34:16.239Z,98178.31
2023-01-10T17:37:20.145Z,98182.38
2023-01-10T17:40:24.219Z,98175.50
2023-01-10T17:43:28.217Z,98172.28
2023-01-10T17:46:32.432Z,98180.16
2023-01-10T17:49:38.428Z,98177.72
2023-01-10T17:52:42.750Z,98174.31
2023-01-10T17:55:49.669Z,98176.94
2023-01-10T17:58:53.762Z,98176.09
2023-01-10T18:01:57.798Z,98181.31
2023-01-10T18:05:01.951Z,98174.28
2023-01-10T18:08:05.921Z,98170.03
2023-01-10T18:11:09.690Z,98175.66
2023-01-10T18:14:15.508Z,98178.28
2023-01-10T18:17:19.519Z,98169.59
2023-01-10T18:20:24.186Z,98175.69
2023-01-10T18:23:28.098Z,98175.09
2023-01-10T18:26:33.899Z,98174.28
2023-01-10T18:29:37.759Z,98168.25
2023-01-10T18:32:41.641Z,98165.19
2023-01-10T18:35:47.396Z,98165.00
2023-01-10T18:38:51.917Z,98162.19
2023-01-10T18:41:55.914Z,98162.97
2023-01-10T18:45:00.066Z,98169.84
2023-01-10T18:48:04.006Z,98176.31
2023-01-10T18:51:08.121Z,98173.66
2023-01-10T18:54:12.038Z,98172.47
2023-01-10T18:57:15.969Z,98170.66
2023-01-10T19:00:20.030Z,98169.47
2023-01-10T19:03:24.089Z,98153.50
2023-01-10T19:06:28.127Z,98154.28
2023-01-10T19:09:32.093Z,98154.06
2023-01-10T19:12:35.831Z,98154.69
2023-01-10T19:15:39.731Z,98153.06
2023-01-10T19:18:43.775Z,98154.72
2023-01-10T19:21:47.867Z,98145.00
2023-01-10T19:24:51.927Z,98151.25
2023-01-10T19:27:56.206Z,98151.44
2023-01-10T19:31:04.556Z,98158.75
2023-01-10T19:34:09.063Z,98157.09
2023-01-10T19:37:13.116Z,98154.06
2023-01-10T19:40:17.443Z,98152.66
2023-01-10T19:43:21.414Z,98145.63
2023-01-10T19:46:25.272Z,98145.81
2023-01-10T19:49:29.117Z,98157.91
2023-01-10T19:52:33.409Z,98150.25
2023-01-10T19:55:37.051Z,98152.28
2023-01-10T19:58:40.884Z,98151.44
2023-01-10T20:01:44.786Z,98150.03
2023-01-10T20:04:48.870Z,98150.06
2023-01-10T20:07:52.873Z,98144.41
2023-01-10T20:10:57.272Z,98139.75
2023-01-10T20:14:01.130Z,98140.56
2023-01-10T20:17:05.137Z,98135.91
2023-01-10T20:20:09.388Z,98137.53
2023-01-10T20:23:13.477Z,98132.09
2023-01-10T20:26:17.381Z,98133.06
2023-01-10T20:29:21.504Z,98130.25
2023-01-10T20:32:25.690Z,98125.22
2023-01-10T20:35:30.863Z,98121.94
2023-01-10T20:38:35.225Z,98118.34
2023-01-10T20:41:39.194Z,98117.25
2023-01-10T20:44:43.172Z,98120.53
2023-01-10T20:47:47.192Z,98125.19
2023-01-10T20:50:51.490Z,98119.31
2023-01-10T20:53:55.465Z,98123.53
2023-01-10T20:56:59.353Z,98132.22
2023-01-10T21:00:03.579Z,98136.50
2023-01-10T21:03:07.932Z,98132.09
2023-01-10T21:06:11.646Z,98127.19
2023-01-10T21:09:15.716Z,98134.09
2023-01-10T21:12:23.471Z,98122.81
2023-01-10T21:15:28.232Z,98119.91
2023-01-10T21:18:32.085Z,98122.34
2023-01-10T21:21:36.054Z,98118.91
2023-01-10T21:24:40.296Z,98116.28
2023-01-10T21:27:44.131Z,98112.25
2023-01-10T21:30:48.060Z,98104.59
2023-01-10T21:33:52.084Z,98100.66
2023-01-10T21:36:56.341Z,98099.31
2023-01-10T21:40:00.468Z,98099.53
2023-01-10T21:43:04.407Z,98089.53
2023-01-10T21:46:08.524Z,98088.34
2023-01-10T21:49:12.895Z,98088.41
2023-01-10T21:52:16.918Z,98087.44
2023-01-10T21:55:20.900Z,98090.81
2023-01-10T21:58:24.924Z,98089.44
2023-01-10T22:01:28.914Z,98088.44
2023-01-10T22:04:33.469Z,98087.63
2023-01-10T22:07:37.364Z,98094.69
2023-01-10T22:10:41.370Z,98084.38
2023-01-10T22:13:45.613Z,98074.09
2023-01-10T22:16:49.603Z,98078.34
2023-01-10T22:19:53.844Z,98071.09
2023-01-10T22:23:00.742Z,98072.28
2023-01-10T22:26:04.560Z,98068.41
2023-01-10T22:29:08.756Z,98071.38
2023-01-10T22:32:13.432Z,98075.06
2023-01-10T22:35:17.300Z,98071.94
2023-01-10T22:38:21.594Z,98068.41
2023-01-10T22:41:25.372Z,98079.50
2023-01-10T22:44:29.261Z,98081.69
2023-01-10T22:47:34.318Z,98081.28
2023-01-10T22:50:38.553Z,98083.13
2023-01-10T22:53:42.569Z,98083.38
2023-01-10T22:56:46.575Z,98081.56
2023-01-10T23:00:03.291Z,98072.69
2023-01-10T23:03:07.107Z,98060.78
2023-01-10T23:06:10.978Z,98053.53
2023-01-10T23:09:15.189Z,98044.06
2023-01-10T23:12:19.272Z,98044.06
2023-01-10T23:15:23.288Z,98053.06
2023-01-10T23:18:27.389Z,98051.28
2023-01-10T23:21:31.453Z,98046.44
2023-01-10T23:24:35.616Z,98040.78
2023-01-10T23:27:39.498Z,98046.47
2023-01-10T23:30:43.679Z,98053.09
2023-01-10T23:33:47.592Z,98061.19
2023-01-10T23:36:53.576Z,98051.69
2023-01-10T23:39:57.494Z,98048.28
2023-01-10T23:43:01.703Z,98056.94
2023-01-10T23:46:06.059Z,98061.19
2023-01-10T23:49:10.023Z,98051.91
2023-01-10T23:52:13.957Z,98058.97
2023-01-10T23:55:18.046Z,98064.00
2023-01-10T23:58:21.937Z,98061.81
